Time;durP1;ratioP1;P1;durP2;ratioP2;P2;SDS_P1;SDS_P2;PMS_P1;PMS_P2;Temp;Humidity;BMP_temperature;BMP_pressure;BME280_temperature;BME280_humidity;BME280_pressure;Samples;Min_cycle;Max_cycle;Signal;HPM_P1;HPM_P2
2021/05/15 00:01:11;;;;;;;32.37;29.87;;;;;;;;;;4999363;28;20432;-82
2021/05/15 00:03:38;;;;;;;31.07;28.77;;;;;;;;;;5016159;28;20452;-83
2021/05/15 00:06:06;;;;;;;30.43;28.30;;;;;;;;;;5016933;28;20441;-82
2021/05/15 00:08:33;;;;;;;32.47;30.17;;;;;;;;;;5016452;28;20483;-81
2021/05/15 00:11:00;;;;;;;33.63;31.10;;;;;;;;;;5016514;28;20426;-81
2021/05/15 00:13:27;;;;;;;36.60;33.80;;;;;;;;;;5016775;28;20436;-81
2021/05/15 00:15:54;;;;;;;36.43;33.57;;;;;;;;;;5016696;28;20498;-81
2021/05/15 00:18:21;;;;;;;33.60;31.10;;;;;;;;;;5016689;28;20479;-81
2021/05/15 00:20:48;;;;;;;34.33;31.93;;;;;;;;;;5016592;28;20909;-81
2021/05/15 00:23:15;;;;;;;32.50;30.13;;;;;;;;;;5016548;28;20950;-81
2021/05/15 00:25:43;;;;;;;33.13;30.80;;;;;;;;;;5016717;28;20407;-81
2021/05/15 00:28:10;;;;;;;31.07;28.87;;;;;;;;;;5016405;28;20523;-81
2021/05/15 00:30:37;;;;;;;31.93;29.63;;;;;;;;;;5017148;28;20473;-81
2021/05/15 00:33:04;;;;;;;31.03;28.70;;;;;;;;;;5016287;28;20419;-81
2021/05/15 00:35:31;;;;;;;33.17;30.70;;;;;;;;;;5015911;28;20962;-81
2021/05/15 00:37:58;;;;;;;34.20;31.70;;;;;;;;;;5016269;28;20478;-81
2021/05/15 00:40:24;;;;;;;32.17;29.67;;;;;;;;;;5016057;28;20428;-80
2021/05/15 00:42:53;;;;;;;34.80;32.00;;;;;;;;;;5016196;28;20457;-81
2021/05/15 00:45:20;;;;;;;33.80;30.80;;;;;;;;;;5016059;28;20431;-81
2021/05/15 00:47:47;;;;;;;32.87;30.40;;;;;;;;;;5016120;28;20440;-81
2021/05/15 00:50:14;;;;;;;32.67;30.20;;;;;;;;;;5016052;28;20415;-81
2021/05/15 00:52:41;;;;;;;32.10;29.43;;;;;;;;;;5016107;28;20451;-81
2021/05/15 00:55:09;;;;;;;32.43;29.97;;;;;;;;;;5016009;28;20477;-81
2021/05/15 00:57:37;;;;;;;33.17;30.77;;;;;;;;;;5015695;28;20452;-82
2021/05/15 01:00:07;;;;;;;32.10;29.53;;;;;;;;;;5015642;28;20889;-82
2021/05/15 01:02:33;;;;;;;31.70;29.40;;;;;;;;;;5015966;28;20415;-81
2021/05/15 01:05:00;;;;;;;32.43;30.17;;;;;;;;;;5015881;28;20440;-81
2021/05/15 01:07:27;;;;;;;30.63;28.47;;;;;;;;;;5020969;28;20422;-81
2021/05/15 01:09:54;;;;;;;31.10;28.60;;;;;;;;;;5016449;28;20466;-81
2021/05/15 01:12:21;;;;;;;31.07;28.80;;;;;;;;;;4999323;28;20959;-81
2021/05/15 01:14:49;;;;;;;31.57;29.27;;;;;;;;;;5016012;28;20447;-81
2021/05/15 01:17:17;;;;;;;31.13;29.07;;;;;;;;;;4999793;28;20940;-80
2021/05/15 01:19:44;;;;;;;31.50;29.20;;;;;;;;;;5018048;28;20509;-81
2021/05/15 01:22:13;;;;;;;29.93;27.83;;;;;;;;;;4998352;28;20441;-81
2021/05/15 01:24:40;;;;;;;31.03;28.93;;;;;;;;;;5015016;28;20423;-81
2021/05/15 01:27:07;;;;;;;29.10;27.07;;;;;;;;;;5015075;28;20438;-81
2021/05/15 01:29:35;;;;;;;30.87;28.73;;;;;;;;;;5015951;28;20488;-81
2021/05/15 01:32:02;;;;;;;29.57;27.57;;;;;;;;;;5016479;28;20505;-83
2021/05/15 01:34:29;;;;;;;29.30;26.73;;;;;;;;;;5015756;28;20494;-81
2021/05/15 01:36:56;;;;;;;30.53;28.13;;;;;;;;;;5015933;28;20447;-81
2021/05/15 01:39:24;;;;;;;29.43;27.43;;;;;;;;;;4998710;28;20444;-81
2021/05/15 01:41:51;;;;;;;30.10;28.00;;;;;;;;;;5016150;28;20419;-81
2021/05/15 01:44:18;;;;;;;30.23;28.07;;;;;;;;;;4999365;28;20448;-81
2021/05/15 01:46:45;;;;;;;29.90;27.70;;;;;;;;;;5009057;28;20456;-82
2021/05/15 01:49:12;;;;;;;31.33;29.13;;;;;;;;;;5018115;28;20494;-82
2021/05/15 01:51:39;;;;;;;31.07;28.77;;;;;;;;;;5019885;28;20586;-81
2021/05/15 01:54:06;;;;;;;31.53;29.23;;;;;;;;;;5016238;28;20439;-81
2021/05/15 01:56:34;;;;;;;29.60;27.50;;;;;;;;;;5016131;28;20436;-81
2021/05/15 01:59:01;;;;;;;29.03;26.93;;;;;;;;;;5016498;28;20415;-82
2021/05/15 02:01:28;;;;;;;29.30;27.33;;;;;;;;;;5000175;28;20447;-81
2021/05/15 02:03:55;;;;;;;29.07;27.07;;;;;;;;;;5016189;28;20411;-82
2021/05/15 02:06:22;;;;;;;29.53;27.50;;;;;;;;;;5016945;28;20952;-81
2021/05/15 02:08:49;;;;;;;29.93;27.77;;;;;;;;;;5015240;28;20487;-82
2021/05/15 02:11:16;;;;;;;28.00;26.20;;;;;;;;;;5015096;28;20420;-82
2021/05/15 02:13:45;;;;;;;30.30;28.30;;;;;;;;;;5016126;28;20481;-82
2021/05/15 02:16:11;;;;;;;28.80;26.90;;;;;;;;;;5015004;28;20419;-82
2021/05/15 02:18:39;;;;;;;29.27;27.17;;;;;;;;;;5014703;28;20450;-81
2021/05/15 02:21:06;;;;;;;31.97;28.90;;;;;;;;;;5015109;28;20543;-81
2021/05/15 02:23:33;;;;;;;30.13;28.03;;;;;;;;;;5014783;28;20745;-81
2021/05/15 02:26:00;;;;;;;30.73;28.30;;;;;;;;;;5014250;28;20444;-81
2021/05/15 02:28:27;;;;;;;32.10;29.50;;;;;;;;;;5014029;28;20476;-81
2021/05/15 02:30:55;;;;;;;31.67;29.27;;;;;;;;;;5014511;28;20521;-81
2021/05/15 02:33:22;;;;;;;31.17;28.97;;;;;;;;;;5014152;28;20429;-81
2021/05/15 02:35:49;;;;;;;32.90;30.40;;;;;;;;;;5014228;28;20546;-82
2021/05/15 02:38:17;;;;;;;31.77;29.53;;;;;;;;;;5014320;28;20443;-82
2021/05/15 02:40:45;;;;;;;30.80;28.70;;;;;;;;;;5014096;28;20432;-82
2021/05/15 02:43:13;;;;;;;31.50;29.23;;;;;;;;;;5013834;28;20464;-82
2021/05/15 02:45:40;;;;;;;32.30;30.00;;;;;;;;;;5014296;28;20415;-82
2021/05/15 02:48:08;;;;;;;31.70;29.30;;;;;;;;;;4996964;28;20517;-81
2021/05/15 02:50:36;;;;;;;33.10;30.60;;;;;;;;;;4980542;28;20863;-82
2021/05/15 02:53:03;;;;;;;32.53;30.23;;;;;;;;;;5013746;28;20449;-82
2021/05/15 02:55:30;;;;;;;32.10;29.60;;;;;;;;;;5013913;28;20437;-81
2021/05/15 02:57:57;;;;;;;32.73;30.07;;;;;;;;;;4996721;28;20427;-82
2021/05/15 03:00:24;;;;;;;31.07;28.80;;;;;;;;;;5014103;28;20415;-82
2021/05/15 03:02:51;;;;;;;31.67;29.17;;;;;;;;;;5013855;28;20419;-82
2021/05/15 03:05:20;;;;;;;31.07;28.87;;;;;;;;;;5016069;28;20411;-82
2021/05/15 03:07:47;;;;;;;31.67;29.17;;;;;;;;;;5014020;28;20468;-82
2021/05/15 03:10:14;;;;;;;31.80;29.50;;;;;;;;;;4996485;28;20943;-82
2021/05/15 03:12:41;;;;;;;32.20;29.50;;;;;;;;;;5013886;28;20411;-82
2021/05/15 03:15:11;;;;;;;33.30;30.60;;;;;;;;;;5013987;28;20463;-81
2021/05/15 03:17:38;;;;;;;31.90;29.50;;;;;;;;;;5013673;28;20433;-81
2021/05/15 03:20:05;;;;;;;32.87;30.40;;;;;;;;;;5014003;28;20869;-81
2021/05/15 03:22:33;;;;;;;32.03;29.77;;;;;;;;;;5013642;28;20403;-81
2021/05/15 03:25:00;;;;;;;34.53;31.87;;;;;;;;;;5013894;28;20415;-81
2021/05/15 03:27:27;;;;;;;34.33;31.73;;;;;;;;;;5014408;28;20516;-82
2021/05/15 03:29:54;;;;;;;34.47;31.83;;;;;;;;;;5013425;28;20520;-82
2021/05/15 03:32:21;;;;;;;34.40;31.80;;;;;;;;;;5014302;28;20472;-81
2021/05/15 03:34:48;;;;;;;33.90;31.40;;;;;;;;;;5013557;28;20510;-81
2021/05/15 03:37:15;;;;;;;33.70;31.00;;;;;;;;;;4996630;28;20415;-82
2021/05/15 03:39:43;;;;;;;33.73;31.10;;;;;;;;;;5013717;28;20759;-82
2021/05/15 03:42:10;;;;;;;34.20;31.60;;;;;;;;;;5013756;28;20962;-82
2021/05/15 03:44:37;;;;;;;34.30;31.83;;;;;;;;;;5013222;28;20818;-83
2021/05/15 03:47:04;;;;;;;33.57;31.07;;;;;;;;;;5013513;28;20414;-82
2021/05/15 03:49:32;;;;;;;33.50;31.00;;;;;;;;;;5017280;28;20458;-81
2021/05/15 03:51:59;;;;;;;33.40;31.00;;;;;;;;;;5016892;28;20426;-81
2021/05/15 03:54:26;;;;;;;32.13;29.70;;;;;;;;;;5017305;28;20407;-81
2021/05/15 03:56:54;;;;;;;33.60;30.90;;;;;;;;;;5016833;28;20447;-81
2021/05/15 03:59:21;;;;;;;32.33;29.87;;;;;;;;;;5016982;28;20422;-81
2021/05/15 04:01:48;;;;;;;33.23;30.73;;;;;;;;;;5016557;28;20787;-81
2021/05/15 04:04:15;;;;;;;32.40;29.90;;;;;;;;;;5016991;28;20451;-80
2021/05/15 04:06:42;;;;;;;32.53;30.23;;;;;;;;;;5016512;28;20897;-80
2021/05/15 04:09:09;;;;;;;32.30;30.00;;;;;;;;;;4999308;28;20458;-80
2021/05/15 04:11:38;;;;;;;32.53;30.03;;;;;;;;;;5016575;28;20425;-82
2021/05/15 04:14:11;;;;;;;32.50;30.00;;;;;;;;;;5016914;28;20513;-81
2021/05/15 04:19:19;;;;;;;33.30;30.70;;;;;;;;;;5014278;28;20548;-80
2021/05/15 04:21:48;;;;;;;32.20;29.80;;;;;;;;;;5016293;28;20440;-80
2021/05/15 04:24:15;;;;;;;32.27;29.87;;;;;;;;;;5016528;28;20475;-80
2021/05/15 04:26:42;;;;;;;31.70;29.30;;;;;;;;;;5016653;28;20447;-80
2021/05/15 04:29:10;;;;;;;31.03;28.73;;;;;;;;;;4998792;28;21014;-80
2021/05/15 04:31:37;;;;;;;30.80;28.50;;;;;;;;;;5015897;28;20911;-80
2021/05/15 04:34:04;;;;;;;30.33;28.00;;;;;;;;;;5016076;28;20486;-80
2021/05/15 04:36:31;;;;;;;30.87;28.50;;;;;;;;;;5015887;28;20443;-80
2021/05/15 04:38:58;;;;;;;29.90;27.60;;;;;;;;;;4998635;28;20502;-80
2021/05/15 04:41:24;;;;;;;28.70;26.60;;;;;;;;;;5016281;28;20441;-80
2021/05/15 04:43:51;;;;;;;28.93;26.93;;;;;;;;;;5016123;28;20407;-80
2021/05/15 04:46:19;;;;;;;28.50;26.60;;;;;;;;;;5015796;28;20419;-80
2021/05/15 04:48:46;;;;;;;29.43;27.33;;;;;;;;;;4998683;28;20447;-80
2021/05/15 04:51:13;;;;;;;28.03;25.93;;;;;;;;;;5016329;28;20431;-80
2021/05/15 04:53:40;;;;;;;30.77;28.50;;;;;;;;;;5015613;28;20430;-80
2021/05/15 04:56:08;;;;;;;29.30;27.30;;;;;;;;;;5015501;28;20457;-80
2021/05/15 04:58:36;;;;;;;29.13;26.93;;;;;;;;;;5015568;28;20449;-80
2021/05/15 05:01:02;;;;;;;28.93;26.93;;;;;;;;;;5015747;28;20455;-81
2021/05/15 05:03:30;;;;;;;28.67;26.67;;;;;;;;;;5016112;28;20436;-80
2021/05/15 05:05:57;;;;;;;27.57;25.67;;;;;;;;;;5016183;28;20418;-81
2021/05/15 05:08:25;;;;;;;28.00;26.20;;;;;;;;;;4997979;28;20459;-80
2021/05/15 05:10:52;;;;;;;28.90;26.90;;;;;;;;;;5015392;28;20815;-80
2021/05/15 05:13:19;;;;;;;28.53;26.63;;;;;;;;;;5015499;28;20427;-80
2021/05/15 05:15:46;;;;;;;28.23;26.17;;;;;;;;;;5015787;28;20451;-80
2021/05/15 05:18:13;;;;;;;27.80;25.90;;;;;;;;;;5015112;28;20523;-80
2021/05/15 05:20:41;;;;;;;27.83;25.93;;;;;;;;;;5015220;28;20426;-80
2021/05/15 05:23:08;;;;;;;27.97;25.90;;;;;;;;;;5015458;28;20440;-80
2021/05/15 05:25:35;;;;;;;26.73;24.93;;;;;;;;;;5015375;28;20411;-80
2021/05/15 05:28:02;;;;;;;29.37;27.27;;;;;;;;;;5015250;28;20452;-80
2021/05/15 05:30:29;;;;;;;28.03;26.13;;;;;;;;;;5015025;28;20822;-80
2021/05/15 05:32:55;;;;;;;27.20;25.40;;;;;;;;;;5015325;28;20437;-81
2021/05/15 05:35:22;;;;;;;27.27;25.57;;;;;;;;;;5014722;28;20851;-80
2021/05/15 05:37:50;;;;;;;26.50;24.77;;;;;;;;;;5015134;28;20469;-80
2021/05/15 05:40:17;;;;;;;27.37;25.67;;;;;;;;;;5014820;28;20426;-80
2021/05/15 05:42:44;;;;;;;26.50;24.80;;;;;;;;;;5014782;28;20942;-80
2021/05/15 05:45:12;;;;;;;25.47;23.80;;;;;;;;;;5015299;28;20870;-82
2021/05/15 05:47:39;;;;;;;25.40;23.60;;;;;;;;;;5014740;28;20834;-80
2021/05/15 05:50:07;;;;;;;25.30;23.60;;;;;;;;;;5015519;28;20449;-80
2021/05/15 05:52:34;;;;;;;25.57;23.97;;;;;;;;;;5015067;28;20467;-80
2021/05/15 05:55:02;;;;;;;26.67;25.07;;;;;;;;;;5015884;28;20474;-81
2021/05/15 05:57:29;;;;;;;25.60;23.90;;;;;;;;;;5018832;28;20449;-80
2021/05/15 05:59:56;;;;;;;25.20;23.60;;;;;;;;;;5014516;28;20419;-80
2021/05/15 06:02:23;;;;;;;24.13;22.67;;;;;;;;;;5014399;28;20422;-81
2021/05/15 06:04:50;;;;;;;25.17;23.67;;;;;;;;;;5014605;28;20806;-80
2021/05/15 06:07:17;;;;;;;25.37;23.77;;;;;;;;;;5014980;28;20477;-80
2021/05/15 06:09:44;;;;;;;25.57;23.97;;;;;;;;;;5014324;28;20487;-80
2021/05/15 06:12:12;;;;;;;24.37;22.70;;;;;;;;;;5016965;28;20444;-80
2021/05/15 06:14:40;;;;;;;24.63;23.03;;;;;;;;;;5014278;28;20440;-79
2021/05/15 06:17:07;;;;;;;23.90;22.40;;;;;;;;;;5014270;28;20480;-79
2021/05/15 06:19:33;;;;;;;24.30;22.90;;;;;;;;;;5014561;28;20433;-94
2021/05/15 06:22:00;;;;;;;25.80;24.20;;;;;;;;;;5014828;28;20502;-80
2021/05/15 06:24:27;;;;;;;24.13;22.73;;;;;;;;;;4997031;28;20897;-80
2021/05/15 06:26:54;;;;;;;26.47;24.87;;;;;;;;;;5014304;28;20889;-80
2021/05/15 06:29:22;;;;;;;25.60;23.93;;;;;;;;;;5014199;28;20484;-80
2021/05/15 06:31:49;;;;;;;24.17;22.77;;;;;;;;;;5014216;28;20771;-80
2021/05/15 06:34:16;;;;;;;24.83;23.20;;;;;;;;;;5014123;28;20521;-80
2021/05/15 06:36:43;;;;;;;25.37;23.87;;;;;;;;;;5014393;28;20407;-80
2021/05/15 06:39:09;;;;;;;23.33;22.03;;;;;;;;;;5014309;28;20408;-80
2021/05/15 06:41:36;;;;;;;23.50;22.10;;;;;;;;;;4999476;28;20430;-82
2021/05/15 06:44:04;;;;;;;22.77;21.33;;;;;;;;;;5015394;28;20424;-80
2021/05/15 06:46:32;;;;;;;21.60;20.40;;;;;;;;;;4999091;28;20539;-80
2021/05/15 06:48:58;;;;;;;22.20;20.97;;;;;;;;;;5017562;28;20451;-80
2021/05/15 06:51:26;;;;;;;21.07;19.87;;;;;;;;;;5015857;28;20952;-80
2021/05/15 06:53:53;;;;;;;20.97;19.77;;;;;;;;;;5015111;28;20905;-84
2021/05/15 06:56:20;;;;;;;20.70;19.50;;;;;;;;;;5014264;28;20415;-79
2021/05/15 06:58:47;;;;;;;21.60;20.20;;;;;;;;;;5015422;28;20448;-83
2021/05/15 07:01:14;;;;;;;21.70;20.40;;;;;;;;;;5014636;28;20465;-79
2021/05/15 07:03:41;;;;;;;21.23;19.93;;;;;;;;;;5015489;28;20507;-79
2021/05/15 07:06:08;;;;;;;21.83;20.63;;;;;;;;;;5015935;28;20430;-78
2021/05/15 07:08:35;;;;;;;21.63;20.30;;;;;;;;;;5016149;28;20483;-79
2021/05/15 07:11:06;;;;;;;21.63;20.27;;;;;;;;;;5020579;28;20419;-79
2021/05/15 07:13:33;;;;;;;23.47;21.77;;;;;;;;;;5015523;28;20495;-79
2021/05/15 07:15:59;;;;;;;24.07;22.13;;;;;;;;;;5015893;28;20419;-86
2021/05/15 07:18:27;;;;;;;23.43;21.90;;;;;;;;;;5016186;28;20435;-80
2021/05/15 07:20:55;;;;;;;23.10;21.70;;;;;;;;;;5015108;28;20408;-79
2021/05/15 07:23:21;;;;;;;22.33;20.90;;;;;;;;;;5017132;28;20469;-79
2021/05/15 07:25:48;;;;;;;21.53;20.30;;;;;;;;;;5018640;28;20407;-79
2021/05/15 07:28:15;;;;;;;21.90;20.47;;;;;;;;;;5018673;28;20415;-79
2021/05/15 07:30:42;;;;;;;22.90;21.60;;;;;;;;;;5020331;28;20419;-79
2021/05/15 07:33:12;;;;;;;22.83;21.23;;;;;;;;;;5018695;28;20444;-79
2021/05/15 07:35:39;;;;;;;21.10;19.90;;;;;;;;;;5019875;28;20488;-79
2021/05/15 07:38:07;;;;;;;20.83;19.67;;;;;;;;;;5020201;28;20415;-79
2021/05/15 07:40:34;;;;;;;21.13;19.57;;;;;;;;;;5018486;28;20431;-79
2021/05/15 07:43:04;;;;;;;20.83;19.53;;;;;;;;;;5018712;28;20436;-78
2021/05/15 07:45:31;;;;;;;20.83;19.50;;;;;;;;;;5018663;28;20423;-84
2021/05/15 07:48:00;;;;;;;20.83;19.60;;;;;;;;;;5019191;28;20469;-78
2021/05/15 07:50:27;;;;;;;21.43;20.13;;;;;;;;;;5017970;28;20884;-79
2021/05/15 07:52:54;;;;;;;20.03;19.00;;;;;;;;;;5018538;28;20423;-78
2021/05/15 07:55:22;;;;;;;20.87;19.57;;;;;;;;;;5018327;28;20423;-78
2021/05/15 07:57:49;;;;;;;19.83;18.73;;;;;;;;;;4984150;28;20456;-78
2021/05/15 08:00:16;;;;;;;19.30;18.10;;;;;;;;;;5017869;28;20449;-78
2021/05/15 08:02:43;;;;;;;19.60;18.60;;;;;;;;;;5019211;28;20423;-79
2021/05/15 08:05:11;;;;;;;19.80;18.70;;;;;;;;;;5020040;28;20411;-79
2021/05/15 08:07:38;;;;;;;19.47;18.47;;;;;;;;;;5018606;28;20811;-79
2021/05/15 08:10:06;;;;;;;19.20;18.10;;;;;;;;;;5023967;28;20463;-78
2021/05/15 08:12:34;;;;;;;19.90;18.80;;;;;;;;;;5028135;28;20441;-79
2021/05/15 08:15:01;;;;;;;20.37;19.17;;;;;;;;;;5021020;28;20423;-79
2021/05/15 08:17:29;;;;;;;19.03;18.03;;;;;;;;;;5019611;28;20455;-78
2021/05/15 08:19:56;;;;;;;20.23;19.03;;;;;;;;;;4999274;28;20940;-79
2021/05/15 08:22:22;;;;;;;19.57;18.57;;;;;;;;;;5019417;28;20434;-86
2021/05/15 08:24:49;;;;;;;19.50;18.50;;;;;;;;;;5017089;28;20412;-78
2021/05/15 08:27:16;;;;;;;19.83;18.73;;;;;;;;;;5017084;28;20461;-78
2021/05/15 08:29:44;;;;;;;19.73;18.57;;;;;;;;;;5016903;28;20980;-79
2021/05/15 08:32:11;;;;;;;20.20;19.00;;;;;;;;;;5017430;28;20422;-78
2021/05/15 08:34:38;;;;;;;21.00;19.70;;;;;;;;;;5015437;28;20978;-79
2021/05/15 08:37:05;;;;;;;21.80;20.30;;;;;;;;;;5017952;28;20412;-78
2021/05/15 08:39:32;;;;;;;21.57;20.33;;;;;;;;;;5016754;28;20441;-78
2021/05/15 08:41:59;;;;;;;21.57;20.37;;;;;;;;;;5019632;28;20416;-79
2021/05/15 08:44:27;;;;;;;20.90;19.80;;;;;;;;;;5017679;28;20415;-78
2021/05/15 08:46:56;;;;;;;21.53;20.30;;;;;;;;;;5018039;28;20438;-78
2021/05/15 08:49:24;;;;;;;20.90;19.70;;;;;;;;;;5019682;28;20489;-78
2021/05/15 08:51:52;;;;;;;22.67;21.37;;;;;;;;;;5023369;28;20922;-78
2021/05/15 08:54:20;;;;;;;21.43;20.30;;;;;;;;;;5007152;28;20419;-78
2021/05/15 08:56:48;;;;;;;20.97;19.67;;;;;;;;;;5023851;28;20445;-76
2021/05/15 08:59:15;;;;;;;22.50;21.20;;;;;;;;;;5023898;28;20503;-77
2021/05/15 09:01:43;;;;;;;21.77;20.37;;;;;;;;;;5022315;28;20462;-77
2021/05/15 09:04:11;;;;;;;22.90;21.60;;;;;;;;;;5021427;28;20413;-77
2021/05/15 09:06:40;;;;;;;20.63;19.57;;;;;;;;;;5029499;28;20457;-77
2021/05/15 09:09:07;;;;;;;21.63;20.43;;;;;;;;;;5024110;28;20510;-77
2021/05/15 09:11:34;;;;;;;20.97;19.87;;;;;;;;;;5007745;28;20441;-77
2021/05/15 09:14:01;;;;;;;21.57;20.37;;;;;;;;;;5022656;28;20415;-77
2021/05/15 09:16:28;;;;;;;21.27;20.07;;;;;;;;;;5027162;28;20469;-77
2021/05/15 09:18:55;;;;;;;21.13;20.03;;;;;;;;;;5025144;28;20430;-77
2021/05/15 09:21:25;;;;;;;22.57;21.13;;;;;;;;;;5021841;28;20482;-77
2021/05/15 09:23:52;;;;;;;22.80;21.60;;;;;;;;;;5005362;28;20437;-78
2021/05/15 09:26:20;;;;;;;22.60;21.20;;;;;;;;;;5022352;28;20423;-77
2021/05/15 09:28:47;;;;;;;23.00;21.70;;;;;;;;;;5021600;28;20477;-78
2021/05/15 09:31:22;;;;;;;22.20;20.83;;;;;;;;;;5022348;28;20499;-78
2021/05/15 09:33:50;;;;;;;20.77;19.73;;;;;;;;;;5016519;28;20422;-77
2021/05/15 09:36:18;;;;;;;21.40;20.20;;;;;;;;;;4998489;28;20768;-77
2021/05/15 09:38:46;;;;;;;20.10;19.10;;;;;;;;;;5021507;28;20450;-78
2021/05/15 09:41:13;;;;;;;21.47;20.33;;;;;;;;;;5022527;28;20413;-77
2021/05/15 09:43:40;;;;;;;22.43;21.23;;;;;;;;;;5022941;28;20532;-78
2021/05/15 09:46:07;;;;;;;20.53;19.53;;;;;;;;;;5021083;28;20904;-78
2021/05/15 09:48:37;;;;;;;20.70;19.60;;;;;;;;;;5021261;28;20426;-83
2021/05/15 09:51:16;;;;;;;21.73;20.53;;;;;;;;;;5023413;28;20442;-79
2021/05/15 09:53:44;;;;;;;25.70;23.93;;;;;;;;;;5021866;28;20441;-77
2021/05/15 09:56:12;;;;;;;25.50;24.10;;;;;;;;;;5017358;28;20416;-79
2021/05/15 09:58:40;;;;;;;24.60;23.10;;;;;;;;;;5016655;28;20408;-79
2021/05/15 10:01:07;;;;;;;30.30;28.20;;;;;;;;;;5017658;28;20470;-83
2021/05/15 10:03:34;;;;;;;24.30;22.70;;;;;;;;;;5018062;28;20415;-78
2021/05/15 10:06:07;;;;;;;25.63;23.70;;;;;;;;;;5023414;28;20531;-79
2021/05/15 10:08:36;;;;;;;25.80;24.20;;;;;;;;;;4999963;28;20542;-79
2021/05/15 10:11:04;;;;;;;27.53;25.93;;;;;;;;;;5016018;28;20804;-80
2021/05/15 10:13:32;;;;;;;29.63;27.63;;;;;;;;;;5016186;28;20451;-79
2021/05/15 10:16:00;;;;;;;28.40;26.60;;;;;;;;;;4998617;28;20444;-79
2021/05/15 10:18:28;;;;;;;24.30;22.97;;;;;;;;;;5020372;28;20451;-80
2021/05/15 10:20:55;;;;;;;22.10;20.90;;;;;;;;;;4999646;28;20441;-79
2021/05/15 10:23:23;;;;;;;20.30;19.30;;;;;;;;;;5017781;28;20529;-79
2021/05/15 10:25:51;;;;;;;21.07;19.97;;;;;;;;;;5017233;28;20408;-80
2021/05/15 10:28:28;;;;;;;22.30;21.20;;;;;;;;;;5017767;28;20808;-81
2021/05/15 10:31:13;;;;;;;19.30;18.20;;;;;;;;;;5018723;28;20483;-81
2021/05/15 10:33:42;;;;;;;19.67;18.20;;;;;;;;;;5017103;28;20427;-80
2021/05/15 10:36:18;;;;;;;41.73;38.23;;;;;;;;;;5021063;28;20423;-80
2021/05/15 10:38:46;;;;;;;41.67;39.57;;;;;;;;;;5023400;28;20437;-79
2021/05/15 10:41:17;;;;;;;39.93;37.73;;;;;;;;;;5022755;28;20407;-80
2021/05/15 10:43:45;;;;;;;42.20;39.80;;;;;;;;;;5022639;28;20415;-80
2021/05/15 10:46:16;;;;;;;38.67;36.40;;;;;;;;;;5023213;28;20456;-81
2021/05/15 10:48:55;;;;;;;37.83;35.53;;;;;;;;;;5021409;28;20889;-91
2021/05/15 10:51:31;;;;;;;39.37;36.97;;;;;;;;;;5007364;28;20425;-80
2021/05/15 10:53:58;;;;;;;34.87;32.97;;;;;;;;;;5025116;28;20475;-81
2021/05/15 10:56:28;;;;;;;37.67;35.20;;;;;;;;;;5024232;28;20448;-80
2021/05/15 10:59:01;;;;;;;37.40;35.20;;;;;;;;;;5028494;28;20424;-81
2021/05/15 11:01:28;;;;;;;35.47;33.50;;;;;;;;;;5027799;28;20449;-80
2021/05/15 11:03:56;;;;;;;37.57;35.40;;;;;;;;;;5028066;28;20441;-79
2021/05/15 11:06:24;;;;;;;35.40;33.30;;;;;;;;;;5026881;28;20897;-79
2021/05/15 11:08:58;;;;;;;35.03;32.83;;;;;;;;;;5000555;28;20451;-82
2021/05/15 11:11:46;;;;;;;38.90;36.70;;;;;;;;;;5017861;28;20440;-82
2021/05/15 11:14:25;;;;;;;37.40;35.30;;;;;;;;;;5011184;28;20464;-82
2021/05/15 11:17:05;;;;;;;37.17;35.07;;;;;;;;;;5018056;28;20481;-81
2021/05/15 11:19:34;;;;;;;37.90;35.50;;;;;;;;;;5019157;28;20419;-81
2021/05/15 11:22:01;;;;;;;37.83;35.83;;;;;;;;;;5018392;28;20825;-78
2021/05/15 11:24:35;;;;;;;37.93;35.63;;;;;;;;;;5017551;28;20447;-79
2021/05/15 11:27:13;;;;;;;36.70;34.50;;;;;;;;;;5017845;28;20413;-79
2021/05/15 11:29:40;;;;;;;37.10;35.03;;;;;;;;;;5017659;28;20526;-79
2021/05/15 11:32:09;;;;;;;34.97;33.07;;;;;;;;;;5017874;28;20436;-86
2021/05/15 11:34:37;;;;;;;36.60;34.60;;;;;;;;;;5018506;28;20459;-78
2021/05/15 11:37:05;;;;;;;34.33;32.53;;;;;;;;;;5017766;28;20868;-79
2021/05/15 11:39:32;;;;;;;30.07;28.47;;;;;;;;;;5017639;28;20415;-79
2021/05/15 11:42:06;;;;;;;29.47;27.77;;;;;;;;;;5019658;28;20406;-79
2021/05/15 11:44:33;;;;;;;31.63;29.57;;;;;;;;;;5013814;28;20423;-78
2021/05/15 11:47:01;;;;;;;29.37;27.57;;;;;;;;;;5000828;28;20431;-78
2021/05/15 11:49:28;;;;;;;29.43;27.63;;;;;;;;;;5000636;28;20542;-78
2021/05/15 11:52:01;;;;;;;28.37;26.60;;;;;;;;;;5000427;28;20423;-79
2021/05/15 11:54:28;;;;;;;27.93;26.27;;;;;;;;;;5022971;28;20473;-77
2021/05/15 11:56:57;;;;;;;28.03;26.40;;;;;;;;;;5020439;28;20767;-78
2021/05/15 11:59:24;;;;;;;27.17;25.50;;;;;;;;;;5016917;28;20933;-78
2021/05/15 12:01:51;;;;;;;26.93;25.13;;;;;;;;;;5017225;28;20870;-78
2021/05/15 12:04:22;;;;;;;28.07;26.27;;;;;;;;;;5017231;28;20913;-81
2021/05/15 12:06:51;;;;;;;25.27;23.63;;;;;;;;;;5017593;28;20527;-82
2021/05/15 12:09:21;;;;;;;25.90;24.20;;;;;;;;;;4999055;28;20547;-80
2021/05/15 12:11:48;;;;;;;25.90;24.30;;;;;;;;;;5019898;28;20431;-82
2021/05/15 12:14:15;;;;;;;26.27;24.13;;;;;;;;;;5005247;28;20449;-80
2021/05/15 12:16:42;;;;;;;25.10;23.60;;;;;;;;;;5019094;28;20468;-80
2021/05/15 12:19:18;;;;;;;28.30;26.43;;;;;;;;;;4999787;28;20420;-80
2021/05/15 12:21:54;;;;;;;27.30;25.60;;;;;;;;;;5017042;28;20452;-83
2021/05/15 12:24:22;;;;;;;27.33;25.40;;;;;;;;;;5017553;28;20422;-83
2021/05/15 12:26:49;;;;;;;28.17;26.27;;;;;;;;;;5017875;28;20978;-84
2021/05/15 12:29:16;;;;;;;23.53;22.13;;;;;;;;;;5025406;28;20539;-83
2021/05/15 12:31:44;;;;;;;24.80;23.40;;;;;;;;;;5016898;28;20422;-81
2021/05/15 12:34:11;;;;;;;23.17;21.87;;;;;;;;;;5017937;28;20506;-83
2021/05/15 12:36:38;;;;;;;22.80;21.50;;;;;;;;;;5020273;28;20507;-84
2021/05/15 12:39:08;;;;;;;23.50;22.10;;;;;;;;;;5019508;28;20459;-80
2021/05/15 12:41:37;;;;;;;24.47;23.00;;;;;;;;;;5018727;28;20424;-79
2021/05/15 12:44:06;;;;;;;25.90;24.27;;;;;;;;;;5001615;28;20428;-79
2021/05/15 12:46:33;;;;;;;24.57;22.87;;;;;;;;;;5022459;28;20440;-80
2021/05/15 12:49:01;;;;;;;26.27;24.50;;;;;;;;;;5019540;28;20429;-80
2021/05/15 12:51:31;;;;;;;25.33;23.73;;;;;;;;;;5017803;28;20763;-81
2021/05/15 12:53:58;;;;;;;25.37;23.80;;;;;;;;;;4999532;28;20921;-80
2021/05/15 12:56:29;;;;;;;24.80;23.30;;;;;;;;;;5016783;28;20407;-80
2021/05/15 12:58:57;;;;;;;24.30;22.80;;;;;;;;;;5016568;28;20419;-81
2021/05/15 13:01:24;;;;;;;25.10;23.53;;;;;;;;;;5022416;28;20748;-83
2021/05/15 13:03:52;;;;;;;25.63;24.03;;;;;;;;;;5024852;28;20424;-83
2021/05/15 13:06:19;;;;;;;24.63;23.13;;;;;;;;;;5022529;28;20435;-83
2021/05/15 13:08:52;;;;;;;25.27;23.77;;;;;;;;;;5004527;28;20415;-84
2021/05/15 13:11:20;;;;;;;24.37;22.70;;;;;;;;;;5022440;28;20423;-83
2021/05/15 13:13:47;;;;;;;24.27;22.77;;;;;;;;;;5005878;28;20955;-83
2021/05/15 13:16:15;;;;;;;25.60;24.00;;;;;;;;;;5021891;28;20475;-83
2021/05/15 13:18:42;;;;;;;24.93;23.33;;;;;;;;;;5023483;28;20429;-82
2021/05/15 13:21:10;;;;;;;25.77;24.03;;;;;;;;;;5025965;28;20426;-83
2021/05/15 13:23:37;;;;;;;24.60;23.10;;;;;;;;;;5008087;28;20427;-82
2021/05/15 13:26:04;;;;;;;23.77;22.27;;;;;;;;;;5023400;28;20439;-83
2021/05/15 13:28:31;;;;;;;24.43;22.93;;;;;;;;;;5023573;28;20456;-83
2021/05/15 13:30:58;;;;;;;24.13;22.63;;;;;;;;;;5023371;28;20626;-83
2021/05/15 13:33:26;;;;;;;25.00;23.43;;;;;;;;;;5022839;28;20440;-84
2021/05/15 13:35:53;;;;;;;23.90;22.40;;;;;;;;;;5015934;28;20484;-83
2021/05/15 13:38:19;;;;;;;25.90;24.40;;;;;;;;;;5015272;28;20445;-83
2021/05/15 13:40:47;;;;;;;24.60;23.10;;;;;;;;;;5015757;28;20431;-83
2021/05/15 13:43:14;;;;;;;24.53;23.03;;;;;;;;;;4998845;28;20412;-84
2021/05/15 13:45:43;;;;;;;25.40;23.80;;;;;;;;;;5015779;28;20404;-82
2021/05/15 13:48:10;;;;;;;23.73;22.33;;;;;;;;;;5016746;28;20434;-82
2021/05/15 13:50:38;;;;;;;23.23;21.73;;;;;;;;;;4999078;28;20461;-84
2021/05/15 13:53:05;;;;;;;23.03;21.73;;;;;;;;;;5016100;28;20409;-82
2021/05/15 13:55:32;;;;;;;23.80;22.40;;;;;;;;;;5015328;28;20460;-84
2021/05/15 13:57:59;;;;;;;24.17;22.73;;;;;;;;;;5016232;28;20461;-84
2021/05/15 14:00:26;;;;;;;22.90;21.70;;;;;;;;;;4998856;28;20437;-84
2021/05/15 14:02:55;;;;;;;20.97;19.87;;;;;;;;;;5015807;28;20447;-83
2021/05/15 14:05:22;;;;;;;21.13;20.03;;;;;;;;;;5016633;28;20446;-84
2021/05/15 14:07:49;;;;;;;21.43;20.33;;;;;;;;;;5016451;28;20442;-84
2021/05/15 14:10:16;;;;;;;20.97;19.73;;;;;;;;;;5016361;28;20453;-84
2021/05/15 14:12:43;;;;;;;20.20;19.10;;;;;;;;;;5015610;28;20432;-83
2021/05/15 14:15:11;;;;;;;20.73;19.73;;;;;;;;;;5021693;28;20415;-85
2021/05/15 14:17:38;;;;;;;20.27;19.20;;;;;;;;;;5021053;28;20527;-83
2021/05/15 14:20:05;;;;;;;20.73;19.63;;;;;;;;;;5016132;28;20446;-85
2021/05/15 14:22:32;;;;;;;20.00;18.97;;;;;;;;;;5015427;28;20457;-84